createdAt,value
2022-09-30T00:01:32.897Z,73.44
2022-09-30T00:04:00.304Z,73.77
2022-09-30T00:06:29.802Z,73.09
2022-09-30T00:08:58.351Z,73.00
2022-09-30T00:11:31.280Z,73.59
2022-09-30T00:13:59.042Z,73.39
2022-09-30T00:16:29.890Z,73.37
2022-09-30T00:18:58.058Z,73.29
2022-09-30T00:21:25.380Z,73.24
2022-09-30T00:23:52.728Z,73.22
2022-09-30T00:26:22.016Z,73.05
2022-09-30T00:28:57.958Z,73.05
2022-09-30T00:31:28.111Z,72.87
2022-09-30T00:34:07.430Z,72.79
2022-09-30T00:36:39.326Z,72.55
2022-09-30T00:39:08.460Z,72.49
2022-09-30T00:41:35.763Z,72.59
2022-09-30T00:44:02.739Z,72.96
2022-09-30T00:46:44.322Z,73.22
2022-09-30T00:49:17.772Z,72.92
2022-09-30T00:51:54.212Z,73.10
2022-09-30T00:54:29.162Z,73.16
2022-09-30T00:57:00.539Z,72.82
2022-09-30T00:59:31.981Z,73.18
2022-09-30T01:02:01.239Z,72.83
2022-09-30T01:04:31.563Z,73.00
2022-09-30T01:07:17.110Z,72.74
2022-09-30T01:09:44.933Z,72.28
2022-09-30T01:12:19.377Z,72.83
2022-09-30T01:14:48.704Z,72.62
2022-09-30T01:17:15.915Z,73.07
2022-09-30T01:20:19.859Z,73.05
2022-09-30T01:23:07.497Z,72.92
2022-09-30T01:26:00.672Z,72.61
2022-09-30T01:28:27.622Z,72.66
2022-09-30T01:31:12.809Z,72.70
2022-09-30T01:33:42.543Z,72.46
2022-09-30T01:36:12.663Z,72.50
2022-09-30T01:38:58.027Z,72.57
2022-09-30T01:41:36.261Z,72.31
2022-09-30T01:44:31.810Z,72.60
2022-09-30T01:47:21.394Z,72.75
2022-09-30T01:50:01.710Z,72.99
2022-09-30T01:53:03.590Z,72.84
2022-09-30T01:56:02.747Z,72.98
2022-09-30T01:58:36.189Z,73.10
2022-09-30T02:01:08.775Z,73.33
2022-09-30T02:03:45.759Z,73.10
2022-09-30T02:06:19.229Z,73.35
2022-09-30T02:09:01.063Z,73.43
2022-09-30T02:11:32.935Z,73.66
2022-09-30T02:14:09.040Z,73.58
2022-09-30T02:16:53.672Z,73.56
2022-09-30T02:19:38.846Z,73.43
2022-09-30T02:22:20.344Z,73.40
2022-09-30T02:24:53.166Z,73.59
2022-09-30T02:27:27.154Z,73.43
2022-09-30T02:29:59.294Z,73.49
2022-09-30T02:32:38.943Z,73.73
2022-09-30T02:35:11.899Z,73.65
2022-09-30T02:37:46.000Z,73.54
2022-09-30T02:40:22.152Z,73.37
2022-09-30T02:42:49.449Z,73.49
2022-09-30T02:45:21.469Z,73.52
2022-09-30T02:47:54.526Z,73.76
2022-09-30T02:50:47.306Z,74.04
2022-09-30T02:53:28.083Z,73.98
2022-09-30T02:56:14.843Z,73.85
2022-09-30T02:58:43.562Z,73.81
2022-09-30T03:01:16.065Z,73.78
2022-09-30T03:03:54.271Z,73.94
2022-09-30T03:06:21.653Z,73.86
2022-09-30T03:08:48.821Z,73.60
2022-09-30T03:11:18.872Z,73.68
2022-09-30T03:14:16.625Z,73.70
2022-09-30T03:17:02.495Z,73.88
2022-09-30T03:19:54.599Z,73.56
2022-09-30T03:22:25.263Z,73.55
2022-09-30T03:24:58.869Z,73.60
2022-09-30T03:27:32.655Z,73.38
2022-09-30T03:30:05.557Z,73.56
2022-09-30T03:32:52.671Z,73.70
2022-09-30T03:35:34.734Z,73.91
2022-09-30T03:38:12.789Z,74.05
2022-09-30T03:40:51.253Z,74.12
2022-09-30T03:43:47.818Z,73.79
2022-09-30T03:46:30.461Z,73.79
2022-09-30T03:49:01.996Z,74.12
2022-09-30T03:51:30.253Z,73.60
2022-09-30T03:53:58.691Z,73.36
2022-09-30T03:56:31.810Z,73.90
2022-09-30T03:58:59.308Z,73.97
2022-09-30T04:01:26.355Z,74.07
2022-09-30T04:03:54.452Z,74.10
2022-09-30T04:06:23.939Z,74.04
2022-09-30T04:08:51.621Z,74.04
2022-09-30T04:11:18.586Z,73.89
2022-09-30T04:13:45.588Z,73.98
2022-09-30T04:16:12.755Z,73.58
2022-09-30T04:18:40.013Z,73.39
2022-09-30T04:21:08.955Z,73.47
2022-09-30T04:23:37.342Z,73.19
2022-09-30T04:26:05.722Z,73.39
2022-09-30T04:28:33.680Z,73.22
2022-09-30T04:31:02.323Z,72.91
2022-09-30T04:33:29.893Z,72.88
2022-09-30T04:35:58.341Z,72.77
2022-09-30T04:38:26.343Z,72.85
2022-09-30T04:40:57.371Z,72.54
2022-09-30T04:43:25.218Z,72.82
2022-09-30T04:45:53.115Z,72.92
2022-09-30T04:48:22.806Z,72.86
2022-09-30T04:50:50.922Z,72.93
2022-09-30T04:53:18.803Z,73.05
2022-09-30T04:55:46.612Z,72.93
2022-09-30T04:58:13.844Z,72.93
2022-09-30T05:00:40.989Z,73.27
2022-09-30T05:03:08.124Z,72.88
2022-09-30T05:05:35.120Z,73.05
2022-09-30T05:08:06.180Z,73.11
2022-09-30T05:10:33.210Z,73.02
2022-09-30T05:13:00.486Z,73.42
2022-09-30T05:15:27.797Z,72.86
2022-09-30T05:17:54.834Z,72.40
2022-09-30T05:20:22.057Z,72.47
2022-09-30T05:22:55.360Z,72.63
2022-09-30T05:25:23.797Z,72.46
2022-09-30T05:27:51.591Z,72.34
2022-09-30T05:30:18.755Z,72.12
2022-09-30T05:32:46.496Z,72.12
2022-09-30T05:35:13.590Z,72.21
2022-09-30T05:37:40.819Z,72.37
2022-09-30T05:40:08.700Z,72.57
2022-09-30T05:42:37.187Z,72.13
2022-09-30T05:45:06.733Z,71.77
2022-09-30T05:47:34.448Z,72.24
2022-09-30T05:50:01.603Z,72.18
2022-09-30T05:52:29.273Z,71.91
2022-09-30T05:54:57.794Z,71.94
2022-09-30T05:57:25.743Z,72.12
2022-09-30T05:59:52.789Z,72.25
2022-09-30T06:02:19.901Z,71.96
2022-09-30T06:04:47.012Z,71.85
2022-09-30T06:07:14.041Z,71.98
2022-09-30T06:09:41.064Z,71.82
2022-09-30T06:12:08.344Z,71.81
2022-09-30T06:14:35.322Z,71.44
2022-09-30T06:17:02.434Z,70.92
2022-09-30T06:19:30.502Z,71.05
2022-09-30T06:21:58.295Z,71.14
2022-09-30T06:24:25.493Z,71.09
2022-09-30T06:26:52.554Z,70.70
2022-09-30T06:29:19.780Z,70.81
2022-09-30T06:31:46.835Z,70.37
2022-09-30T06:34:13.866Z,70.37
2022-09-30T06:36:40.932Z,70.11
2022-09-30T06:39:11.526Z,69.91
2022-09-30T06:41:42.550Z,69.74
2022-09-30T06:44:12.348Z,69.63
2022-09-30T06:46:51.788Z,69.83
2022-09-30T06:49:20.967Z,69.46
2022-09-30T06:51:48.082Z,69.21
2022-09-30T06:54:15.153Z,69.41
2022-09-30T06:56:42.628Z,69.59
2022-09-30T06:59:09.743Z,69.37
2022-09-30T07:01:36.797Z,69.10
2022-09-30T07:04:09.598Z,68.92
2022-09-30T07:06:39.175Z,68.73
2022-09-30T07:09:07.428Z,68.07
2022-09-30T07:11:34.779Z,67.45
2022-09-30T07:14:01.739Z,67.40
2022-09-30T07:16:28.819Z,67.60
2022-09-30T07:18:56.097Z,67.15
2022-09-30T07:21:23.185Z,66.29
2022-09-30T07:23:52.949Z,65.40
2022-09-30T07:26:22.105Z,65.46
2022-09-30T07:28:50.347Z,64.80
2022-09-30T07:31:32.610Z,64.98
2022-09-30T07:34:00.474Z,64.45
2022-09-30T07:36:32.520Z,63.60
2022-09-30T07:39:14.947Z,63.71
2022-09-30T07:41:43.948Z,63.84
2022-09-30T07:44:14.919Z,63.59
2022-09-30T07:46:43.246Z,63.72
2022-09-30T07:49:14.902Z,63.25
2022-09-30T07:51:45.963Z,63.28
2022-09-30T07:54:17.281Z,63.57
2022-09-30T07:59:38.067Z,63.15
2022-09-30T08:02:06.966Z,62.04
2022-09-30T08:04:34.509Z,61.66
2022-09-30T08:07:02.614Z,61.93
2022-09-30T08:09:31.432Z,61.56
2022-09-30T08:11:58.817Z,61.42
2022-09-30T08:14:27.758Z,62.06
2022-09-30T08:16:56.914Z,60.77
2022-09-30T08:19:25.246Z,62.18
2022-09-30T08:21:55.904Z,60.78
2022-09-30T08:24:24.463Z,60.91
2022-09-30T08:26:52.716Z,60.35
2022-09-30T08:29:35.806Z,60.53
2022-09-30T08:32:07.181Z,60.13
2022-09-30T08:34:35.954Z,60.04
2022-09-30T08:37:08.820Z,60.41
2022-09-30T08:39:38.018Z,60.42
2022-09-30T08:42:35.982Z,60.66
2022-09-30T08:45:38.630Z,60.82
2022-09-30T08:48:52.907Z,60.60
2022-09-30T08:51:53.183Z,61.91
2022-09-30T08:54:26.139Z,61.39
2022-09-30T08:56:56.631Z,61.69
2022-09-30T08:59:40.889Z,60.37
2022-09-30T09:02:24.666Z,60.86
2022-09-30T09:04:52.807Z,61.11
2022-09-30T09:07:34.868Z,60.73
2022-09-30T09:10:30.542Z,61.02
2022-09-30T09:13:25.550Z,61.13
2022-09-30T09:15:55.436Z,61.27
2022-09-30T09:18:41.016Z,61.57
2022-09-30T09:21:27.223Z,61.75
2022-09-30T09:23:57.995Z,61.60
2022-09-30T09:26:27.016Z,61.83
2022-09-30T09:29:20.225Z,62.03
2022-09-30T09:31:48.456Z,61.44
2022-09-30T09:34:15.962Z,61.61
2022-09-30T09:36:55.467Z,61.97
2022-09-30T09:39:22.614Z,61.72
2022-09-30T09:42:27.035Z,61.77
2022-09-30T09:45:00.084Z,61.67
2022-09-30T09:47:27.098Z,61.56
2022-09-30T09:49:58.420Z,61.83
2022-09-30T09:52:25.393Z,61.73
2022-09-30T09:54:56.728Z,61.84
2022-09-30T09:57:32.426Z,62.48
2022-09-30T10:00:31.300Z,62.30
2022-09-30T10:03:04.322Z,62.60
2022-09-30T10:05:39.712Z,62.69
2022-09-30T10:08:21.896Z,63.08
2022-09-30T10:10:50.460Z,63.11
2022-09-30T10:13:26.599Z,62.94
2022-09-30T10:15:59.509Z,62.93
2022-09-30T10:18:35.201Z,63.25
2022-09-30T10:21:08.043Z,63.12
2022-09-30T10:23:39.088Z,63.08
2022-09-30T10:26:15.329Z,63.04
2022-09-30T10:28:51.882Z,62.80
2022-09-30T10:31:38.932Z,62.82
2022-09-30T10:34:24.980Z,62.70
2022-09-30T10:36:53.597Z,62.62
2022-09-30T10:39:34.669Z,63.13
2022-09-30T10:42:21.262Z,63.07
2022-09-30T10:44:56.761Z,62.91
2022-09-30T10:47:26.694Z,62.81
2022-09-30T10:50:05.490Z,62.99
2022-09-30T10:52:36.003Z,63.00
2022-09-30T10:55:14.686Z,63.04
2022-09-30T10:57:42.771Z,62.41
2022-09-30T11:00:21.789Z,62.21
2022-09-30T11:02:50.599Z,61.85
2022-09-30T11:05:30.934Z,62.15
2022-09-30T11:08:17.032Z,61.86
2022-09-30T11:10:49.677Z,61.44
2022-09-30T11:13:35.371Z,62.09
2022-09-30T11:16:08.673Z,62.03
2022-09-30T11:18:50.372Z,62.08
2022-09-30T11:21:35.733Z,61.86
2022-09-30T11:24:08.672Z,61.81
2022-09-30T11:26:44.841Z,61.90
2022-09-30T11:29:14.785Z,62.10
2022-09-30T11:31:50.639Z,62.10
2022-09-30T11:34:20.756Z,62.05
2022-09-30T11:37:02.929Z,62.18
2022-09-30T11:39:51.444Z,62.57
2022-09-30T11:42:40.725Z,62.30
2022-09-30T11:45:16.868Z,62.48
2022-09-30T11:47:53.683Z,62.55
2022-09-30T11:50:48.827Z,62.73
2022-09-30T11:53:37.273Z,62.85
2022-09-30T11:56:21.137Z,62.82
2022-09-30T11:58:51.725Z,62.49
2022-09-30T12:01:26.869Z,62.15
2022-09-30T12:04:34.387Z,62.18
2022-09-30T12:07:26.347Z,62.36
2022-09-30T12:10:05.713Z,62.51
2022-09-30T12:12:32.934Z,62.36
2022-09-30T12:15:03.125Z,62.54
2022-09-30T12:17:40.840Z,61.83
2022-09-30T12:20:25.820Z,62.14
2022-09-30T12:23:11.360Z,62.12
2022-09-30T12:25:46.089Z,62.08
2022-09-30T12:28:45.446Z,62.09
2022-09-30T12:31:52.179Z,62.16
2022-09-30T12:34:51.757Z,62.25
2022-09-30T12:37:31.309Z,62.52
2022-09-30T12:40:22.607Z,62.55
2022-09-30T12:43:22.392Z,62.43
2022-09-30T12:46:20.862Z,62.93
2022-09-30T12:48:54.246Z,63.15
2022-09-30T12:51:33.555Z,62.95
2022-09-30T12:54:29.088Z,62.81
2022-09-30T12:57:03.992Z,63.10
2022-09-30T12:59:36.394Z,63.08
2022-09-30T13:02:06.478Z,63.01
2022-09-30T13:04:39.453Z,62.91
2022-09-30T13:07:17.276Z,62.80
2022-09-30T13:10:02.574Z,62.68
2022-09-30T13:12:41.947Z,62.24
2022-09-30T13:15:31.115Z,62.28
2022-09-30T13:18:20.639Z,62.29
2022-09-30T13:20:56.740Z,62.31
2022-09-30T13:23:42.751Z,62.16
2022-09-30T13:26:28.312Z,62.25
2022-09-30T13:29:16.440Z,62.23
2022-09-30T13:31:49.976Z,62.23
2022-09-30T13:34:26.574Z,62.22
2022-09-30T13:36:53.644Z,62.13
2022-09-30T13:39:22.468Z,62.30
2022-09-30T13:41:55.715Z,62.20
2022-09-30T13:44:40.465Z,62.21
2022-09-30T13:47:39.198Z,62.21
2022-09-30T13:50:23.919Z,62.25
2022-09-30T13:52:56.749Z,62.43
2022-09-30T13:55:34.056Z,62.33
2022-09-30T13:58:28.725Z,62.53
2022-09-30T14:01:08.637Z,62.61
2022-09-30T14:03:54.486Z,62.80
2022-09-30T14:06:45.597Z,62.80
2022-09-30T14:09:23.979Z,62.55
2022-09-30T14:12:13.666Z,62.83
2022-09-30T14:15:03.301Z,62.86
2022-09-30T14:17:37.032Z,63.00
2022-09-30T14:20:27.292Z,62.88
2022-09-30T14:22:54.515Z,63.03
2022-09-30T14:25:21.839Z,63.03
2022-09-30T14:27:57.114Z,63.06
2022-09-30T14:30:25.971Z,63.13
2022-09-30T14:33:18.925Z,63.59
2022-09-30T14:35:46.268Z,63.40
2022-09-30T14:38:25.259Z,63.53
2022-09-30T14:40:55.824Z,63.47
2022-09-30T14:43:32.736Z,63.24
2022-09-30T14:46:06.340Z,63.30
2022-09-30T14:48:37.827Z,63.51
2022-09-30T14:51:10.784Z,63.70
2022-09-30T14:53:55.558Z,63.71
2022-09-30T14:56:30.181Z,63.69
2022-09-30T14:59:00.057Z,63.99
2022-09-30T15:01:35.638Z,64.14
2022-09-30T15:04:08.592Z,63.93
2022-09-30T15:06:38.815Z,64.17
2022-09-30T15:09:18.637Z,64.07
2022-09-30T15:11:47.356Z,64.33
2022-09-30T15:14:20.057Z,64.43
2022-09-30T15:16:52.635Z,64.43
2022-09-30T15:19:23.030Z,64.27
2022-09-30T15:22:03.879Z,64.05
2022-09-30T15:24:35.621Z,64.22
2022-09-30T15:27:04.446Z,64.38
2022-09-30T15:29:31.756Z,64.47
2022-09-30T15:31:59.862Z,64.46
2022-09-30T15:34:29.208Z,64.58
2022-09-30T15:37:04.631Z,64.57
2022-09-30T15:39:52.611Z,64.54
2022-09-30T15:42:45.938Z,64.47
2022-09-30T15:45:33.528Z,64.59
2022-09-30T15:48:06.929Z,64.53
2022-09-30T15:50:48.109Z,64.64
2022-09-30T15:53:25.347Z,64.63
2022-09-30T15:56:30.952Z,64.62
2022-09-30T15:59:02.766Z,64.68
2022-09-30T16:01:50.647Z,64.81
2022-09-30T16:04:17.986Z,65.24
2022-09-30T16:06:52.529Z,65.16
2022-09-30T16:09:30.064Z,65.27
2022-09-30T16:12:03.779Z,65.37
2022-09-30T16:14:56.257Z,65.75
2022-09-30T16:17:30.334Z,65.77
2022-09-30T16:20:14.329Z,65.71
2022-09-30T16:22:42.258Z,65.95
2022-09-30T16:25:32.843Z,65.98
2022-09-30T16:28:14.317Z,66.24
2022-09-30T16:30:49.422Z,66.14
2022-09-30T16:33:18.165Z,66.23
2022-09-30T16:35:51.798Z,66.40
2022-09-30T16:38:20.675Z,66.55
2022-09-30T16:40:48.438Z,66.43
2022-09-30T16:43:17.899Z,66.66
2022-09-30T16:45:45.862Z,66.62
2022-09-30T16:48:17.942Z,66.66
2022-09-30T16:50:52.192Z,67.06
2022-09-30T16:53:19.731Z,66.96
2022-09-30T16:55:48.230Z,67.02
2022-09-30T16:58:15.967Z,67.04
2022-09-30T17:00:47.471Z,66.77
2022-09-30T17:03:19.482Z,66.99
2022-09-30T17:05:53.339Z,67.09
2022-09-30T17:08:23.089Z,67.11
2022-09-30T17:10:51.230Z,67.02
2022-09-30T17:13:21.493Z,67.42
2022-09-30T17:15:52.144Z,67.26
2022-09-30T17:18:22.794Z,67.80
2022-09-30T17:20:53.439Z,67.53
2022-09-30T17:23:23.357Z,67.24
2022-09-30T17:25:52.703Z,67.41
2022-09-30T17:28:21.709Z,67.51
2022-09-30T17:30:50.627Z,67.54
2022-09-30T17:33:21.082Z,67.55
2022-09-30T17:36:12.689Z,68.12
2022-09-30T17:38:41.248Z,68.06
2022-09-30T17:41:32.066Z,68.00
2022-09-30T17:44:03.139Z,68.10
2022-09-30T17:46:41.409Z,68.42
2022-09-30T17:49:09.240Z,68.11
2022-09-30T17:51:38.390Z,68.25
2022-09-30T17:54:09.228Z,68.32
2022-09-30T17:56:38.471Z,68.03
2022-09-30T17:59:05.876Z,68.28
2022-09-30T18:01:33.466Z,68.38
2022-09-30T18:04:02.230Z,68.53
2022-09-30T18:06:30.615Z,68.75
2022-09-30T18:08:58.977Z,68.59
2022-09-30T18:11:29.703Z,68.49
2022-09-30T18:14:01.765Z,68.47
2022-09-30T18:16:31.803Z,68.55
2022-09-30T18:19:01.452Z,68.62
2022-09-30T18:21:30.202Z,68.39
2022-09-30T18:23:59.099Z,68.78
2022-09-30T18:26:33.492Z,68.76
2022-09-30T18:29:04.479Z,68.78
2022-09-30T18:31:39.146Z,68.86
2022-09-30T18:34:07.677Z,68.54
2022-09-30T18:36:35.634Z,68.91
2022-09-30T18:39:03.321Z,68.97
2022-09-30T18:41:32.422Z,69.12
2022-09-30T18:44:02.937Z,69.40
2022-09-30T18:46:32.223Z,69.44
2022-09-30T18:48:59.694Z,69.54
2022-09-30T18:51:27.123Z,69.58
2022-09-30T18:53:57.911Z,69.63
2022-09-30T18:56:32.088Z,69.85
2022-09-30T18:59:01.487Z,70.14
2022-09-30T19:01:33.282Z,69.93
2022-09-30T19:04:04.304Z,70.07
2022-09-30T19:06:32.832Z,70.19
2022-09-30T19:09:00.191Z,70.44
2022-09-30T19:11:27.972Z,70.49
2022-09-30T19:13:58.174Z,70.72
2022-09-30T19:16:26.299Z,70.82
2022-09-30T19:18:55.449Z,70.67
2022-09-30T19:21:22.947Z,71.06
2022-09-30T19:23:50.446Z,70.62
2022-09-30T19:26:17.722Z,70.62
2022-09-30T19:28:45.126Z,70.93
2022-09-30T19:31:15.833Z,70.47
2022-09-30T19:33:55.802Z,70.59
2022-09-30T19:36:27.154Z,70.65
2022-09-30T19:39:10.164Z,70.92
2022-09-30T19:41:39.681Z,70.86
2022-09-30T19:44:06.982Z,71.27
2022-09-30T19:46:34.626Z,70.78
2022-09-30T19:49:02.190Z,71.14
2022-09-30T19:51:30.994Z,71.25
2022-09-30T19:54:05.975Z,71.24
2022-09-30T19:56:36.347Z,71.29
2022-09-30T19:59:04.825Z,71.31
2022-09-30T20:01:35.117Z,71.17
2022-09-30T20:04:05.863Z,71.05
2022-09-30T20:06:34.362Z,71.39
2022-09-30T20:09:04.529Z,71.46
2022-09-30T20:11:35.724Z,71.40
2022-09-30T20:14:24.621Z,71.62
2022-09-30T20:16:52.506Z,71.71
2022-09-30T20:19:19.975Z,71.64
2022-09-30T20:21:47.754Z,71.92
2022-09-30T20:24:17.015Z,71.80
2022-09-30T20:26:46.041Z,71.88
2022-09-30T20:29:15.597Z,72.07
2022-09-30T20:31:44.126Z,72.31
2022-09-30T20:34:13.716Z,72.22
2022-09-30T20:36:41.937Z,71.76
2022-09-30T20:39:09.721Z,72.06
2022-09-30T20:41:39.257Z,72.13
2022-09-30T20:44:09.120Z,72.23
2022-09-30T20:46:36.157Z,72.30
2022-09-30T20:49:03.440Z,72.22
2022-09-30T20:51:31.635Z,72.21
2022-09-30T20:54:00.030Z,72.13
2022-09-30T20:56:39.341Z,72.20
2022-09-30T20:59:17.295Z,71.95
2022-09-30T21:01:44.517Z,72.09
2022-09-30T21:04:11.681Z,72.20
2022-09-30T21:06:38.706Z,72.13
2022-09-30T21:09:06.017Z,72.28
2022-09-30T21:11:33.688Z,72.16
2022-09-30T21:14:01.025Z,72.34
2022-09-30T21:16:29.697Z,72.35
2022-09-30T21:18:56.904Z,72.44
2022-09-30T21:21:25.852Z,72.29
2022-09-30T21:23:58.861Z,72.59
2022-09-30T21:26:26.709Z,73.09
2022-09-30T21:28:54.097Z,72.54
2022-09-30T21:31:24.999Z,72.74
2022-09-30T21:33:58.473Z,72.56
2022-09-30T21:36:27.052Z,72.62
2022-09-30T21:38:55.098Z,73.10
2022-09-30T21:41:22.983Z,72.86
2022-09-30T21:43:50.081Z,73.24
2022-09-30T21:46:18.638Z,73.01
2022-09-30T21:48:46.223Z,73.01
2022-09-30T21:51:14.009Z,72.90
2022-09-30T21:53:41.936Z,72.87
2022-09-30T21:56:11.614Z,72.86
2022-09-30T21:58:38.897Z,72.83
2022-09-30T22:01:07.361Z,73.25
2022-09-30T22:03:38.008Z,73.17
2022-09-30T22:06:09.421Z,73.21
2022-09-30T22:08:40.798Z,73.07
2022-09-30T22:11:11.404Z,73.12
2022-09-30T22:13:40.918Z,73.08
2022-09-30T22:16:08.589Z,73.34
2022-09-30T22:18:36.425Z,73.54
2022-09-30T22:21:07.550Z,73.45
2022-09-30T22:23:34.542Z,73.73
2022-09-30T22:26:11.728Z,73.48
2022-09-30T22:28:39.840Z,73.83
2022-09-30T22:31:27.879Z,73.99
2022-09-30T22:34:16.290Z,74.20
2022-09-30T22:37:02.401Z,74.15
2022-09-30T22:39:29.941Z,73.92
2022-09-30T22:41:58.210Z,74.20
2022-09-30T22:44:28.162Z,74.30
2022-09-30T22:46:59.642Z,74.49
2022-09-30T22:49:28.022Z,74.67
2022-09-30T22:51:56.725Z,74.67
2022-09-30T22:54:25.439Z,74.88
2022-09-30T22:56:54.552Z,74.98
2022-09-30T22:59:23.129Z,75.20
2022-09-30T23:01:50.262Z,75.03
2022-09-30T23:04:18.362Z,75.13
2022-09-30T23:06:51.242Z,75.25
2022-09-30T23:09:20.835Z,74.99
2022-09-30T23:11:51.199Z,74.75
2022-09-30T23:14:18.629Z,74.49
2022-09-30T23:16:46.225Z,74.55
2022-09-30T23:19:13.301Z,74.56
2022-09-30T23:21:40.962Z,74.81
2022-09-30T23:24:08.131Z,74.90
2022-09-30T23:26:35.504Z,74.81
2022-09-30T23:29:05.693Z,74.77
2022-09-30T23:31:33.887Z,74.85
2022-09-30T23:34:02.999Z,75.10
2022-09-30T23:36:35.739Z,75.08
2022-09-30T23:39:02.929Z,74.77
2022-09-30T23:41:32.127Z,75.01
2022-09-30T23:43:59.607Z,75.07
2022-09-30T23:46:26.685Z,75.01
2022-09-30T23:48:53.944Z,75.25
2022-09-30T23:51:20.958Z,75.15
2022-09-30T23:53:48.030Z,75.00
2022-09-30T23:56:18.067Z,75.07
2022-09-30T23:58:46.045Z,74.87
